createdAt,value
2024-02-22T00:01:36.958Z,87.00
2024-02-22T00:04:13.433Z,87.00
2024-02-22T00:06:40.901Z,86.90
2024-02-22T00:09:10.126Z,86.90
2024-02-22T00:11:39.731Z,86.90
2024-02-22T00:14:09.564Z,86.80
2024-02-22T00:16:36.630Z,86.80
2024-02-22T00:19:03.679Z,86.70
2024-02-22T00:21:30.640Z,86.50
2024-02-22T00:23:57.625Z,86.40
2024-02-22T00:26:27.078Z,86.30
2024-02-22T00:28:54.092Z,86.30
2024-02-22T00:31:23.176Z,86.30
2024-02-22T00:33:52.629Z,86.40
2024-02-22T00:36:19.616Z,86.50
2024-02-22T00:38:48.664Z,86.50
2024-02-22T00:41:19.780Z,86.80
2024-02-22T00:43:51.371Z,87.10
2024-02-22T00:46:18.389Z,87.50
2024-02-22T00:48:48.395Z,87.70
2024-02-22T00:51:15.534Z,87.90
2024-02-22T00:53:42.530Z,88.20
2024-02-22T00:56:09.538Z,88.30
2024-02-22T00:58:36.834Z,88.30
2024-02-22T01:01:03.895Z,88.40
2024-02-22T01:03:33.510Z,88.50
2024-02-22T01:06:00.607Z,88.50
2024-02-22T01:08:27.589Z,88.60
2024-02-22T01:10:59.192Z,88.70
2024-02-22T01:13:26.150Z,88.80
2024-02-22T01:15:55.204Z,88.70
2024-02-22T01:18:22.276Z,88.50
2024-02-22T01:20:51.322Z,88.40
2024-02-22T01:23:20.903Z,88.50
2024-02-22T01:25:49.150Z,88.60
2024-02-22T01:28:16.201Z,88.60
2024-02-22T01:30:43.272Z,88.80
2024-02-22T01:33:13.581Z,88.60
2024-02-22T01:35:40.836Z,88.90
2024-02-22T01:38:08.669Z,88.90
2024-02-22T01:40:37.976Z,88.90
2024-02-22T01:43:07.445Z,89.00
2024-02-22T01:45:34.425Z,89.00
2024-02-22T01:48:04.793Z,89.10
2024-02-22T01:50:34.051Z,89.30
2024-02-22T01:53:03.681Z,89.40
2024-02-22T01:55:33.079Z,89.60
2024-02-22T01:58:02.425Z,89.70
2024-02-22T02:00:29.716Z,89.80
2024-02-22T02:02:56.688Z,89.80
2024-02-22T02:05:23.606Z,90.00
2024-02-22T02:07:55.127Z,90.00
2024-02-22T02:10:24.326Z,90.00
2024-02-22T02:12:51.305Z,90.10
2024-02-22T02:15:18.308Z,90.20
2024-02-22T02:17:47.521Z,90.30
2024-02-22T02:20:14.670Z,90.60
2024-02-22T02:22:53.133Z,90.70
2024-02-22T02:25:23.756Z,90.70
2024-02-22T02:27:53.085Z,90.70
2024-02-22T02:30:22.404Z,90.70
2024-02-22T02:32:51.616Z,90.70
2024-02-22T02:35:18.725Z,90.90
2024-02-22T02:37:50.423Z,90.90
2024-02-22T02:40:17.331Z,90.90
2024-02-22T02:42:46.540Z,90.80
2024-02-22T02:45:15.756Z,90.90
2024-02-22T02:47:47.301Z,90.80
2024-02-22T02:50:17.093Z,90.80
2024-02-22T02:52:46.315Z,90.90
2024-02-22T02:55:15.123Z,91.00
2024-02-22T02:57:47.122Z,91.20
2024-02-22T03:00:17.574Z,91.20
2024-02-22T03:02:46.592Z,91.20
2024-02-22T03:05:13.680Z,91.10
2024-02-22T03:07:41.721Z,91.10
2024-02-22T03:10:09.052Z,91.00
2024-02-22T03:12:36.002Z,90.80
2024-02-22T03:15:05.699Z,90.80
2024-02-22T03:17:32.671Z,90.90
2024-02-22T03:20:01.174Z,90.70
2024-02-22T03:22:28.201Z,90.70
2024-02-22T03:24:57.547Z,90.70
2024-02-22T03:27:24.472Z,90.80
2024-02-22T03:29:51.441Z,90.70
2024-02-22T03:32:18.484Z,90.80
2024-02-22T03:34:48.479Z,90.80
2024-02-22T03:37:19.186Z,90.80
2024-02-22T03:39:50.939Z,90.80
2024-02-22T03:42:18.418Z,90.60
2024-02-22T03:44:47.905Z,90.50
2024-02-22T03:47:19.424Z,90.40
2024-02-22T03:49:46.467Z,90.40
2024-02-22T03:52:14.735Z,90.40
2024-02-22T03:54:41.786Z,90.30
2024-02-22T03:57:10.919Z,90.10
2024-02-22T03:59:39.983Z,89.80
2024-02-22T04:02:07.284Z,89.60
2024-02-22T04:04:34.418Z,89.30
2024-02-22T04:07:05.936Z,89.20
2024-02-22T04:09:33.357Z,89.10
2024-02-22T04:12:00.389Z,89.00
2024-02-22T04:14:29.732Z,89.20
2024-02-22T04:16:56.726Z,89.30
2024-02-22T04:19:26.491Z,89.30
2024-02-22T04:21:53.519Z,89.30
2024-02-22T04:24:20.449Z,89.20
2024-02-22T04:26:49.422Z,89.10
2024-02-22T04:29:16.482Z,88.90
2024-02-22T04:31:49.256Z,88.50
2024-02-22T04:34:19.167Z,88.30
2024-02-22T04:36:46.176Z,88.00
2024-02-22T04:39:16.356Z,87.80
2024-02-22T04:41:46.097Z,87.80
2024-02-22T04:44:18.916Z,87.80
2024-02-22T04:46:46.419Z,87.80
2024-02-22T04:49:16.381Z,87.90
2024-02-22T04:51:45.467Z,88.00
2024-02-22T04:54:14.568Z,88.20
2024-02-22T04:56:41.488Z,88.10
2024-02-22T04:59:13.179Z,88.10
2024-02-22T05:01:43.457Z,88.00
2024-02-22T05:04:10.662Z,87.90
2024-02-22T05:06:40.016Z,87.70
2024-02-22T05:09:06.948Z,87.60
2024-02-22T05:11:33.973Z,87.70
2024-02-22T05:14:01.250Z,87.50
2024-02-22T05:16:28.340Z,87.60
2024-02-22T05:18:57.536Z,87.50
2024-02-22T05:21:24.650Z,87.50
2024-02-22T05:23:54.063Z,87.50
2024-02-22T05:26:23.226Z,87.40
2024-02-22T05:28:50.243Z,87.30
2024-02-22T05:31:24.654Z,87.20
2024-02-22T05:33:51.834Z,87.20
2024-02-22T05:36:19.672Z,87.30
2024-02-22T05:38:46.879Z,87.40
2024-02-22T05:41:14.423Z,87.20
2024-02-22T05:43:41.562Z,87.10
2024-02-22T05:46:08.689Z,87.30
2024-02-22T05:48:35.712Z,87.80
2024-02-22T05:51:05.290Z,88.30
2024-02-22T05:53:32.235Z,88.50
2024-02-22T05:56:01.452Z,88.60
2024-02-22T05:58:28.425Z,88.70
2024-02-22T06:00:55.457Z,88.80
2024-02-22T06:03:24.603Z,88.60
2024-02-22T06:05:51.762Z,88.40
2024-02-22T06:08:20.190Z,88.40
2024-02-22T06:10:47.296Z,88.40
2024-02-22T06:13:14.829Z,88.40
2024-02-22T06:15:41.801Z,88.30
2024-02-22T06:18:08.859Z,88.30
2024-02-22T06:20:36.061Z,88.30
2024-02-22T06:23:05.040Z,88.30
2024-02-22T06:25:37.076Z,88.30
2024-02-22T06:28:04.225Z,88.30
2024-02-22T06:30:31.202Z,88.40
2024-02-22T06:32:58.866Z,88.50
2024-02-22T06:35:28.502Z,88.70
2024-02-22T06:37:56.029Z,88.70
2024-02-22T06:40:22.993Z,88.80
2024-02-22T06:42:49.922Z,89.00
2024-02-22T06:45:23.657Z,89.20
2024-02-22T06:47:53.530Z,89.40
2024-02-22T06:50:24.438Z,89.60
2024-02-22T06:52:56.266Z,89.80
2024-02-22T06:55:27.240Z,89.90
2024-02-22T06:58:06.553Z,90.10
2024-02-22T07:00:36.530Z,90.30
2024-02-22T07:03:06.472Z,90.50
2024-02-22T07:05:33.875Z,90.60
2024-02-22T07:08:01.347Z,90.80
2024-02-22T07:10:28.750Z,90.90
2024-02-22T07:12:58.063Z,91.00
2024-02-22T07:15:25.204Z,91.10
2024-02-22T07:17:54.605Z,91.10
2024-02-22T07:20:21.717Z,91.00
2024-02-22T07:22:50.187Z,91.00
2024-02-22T07:25:22.096Z,90.90
2024-02-22T07:27:52.051Z,90.80
2024-02-22T07:30:19.247Z,90.60
2024-02-22T07:32:48.613Z,90.60
2024-02-22T07:35:25.923Z,90.60
2024-02-22T07:37:53.035Z,90.50
2024-02-22T07:40:20.041Z,90.50
2024-02-22T07:42:47.064Z,90.50
2024-02-22T07:45:14.044Z,90.70
2024-02-22T07:47:40.979Z,90.70
2024-02-22T07:50:12.262Z,90.90
2024-02-22T07:52:41.051Z,90.90
2024-02-22T07:55:11.367Z,91.10
2024-02-22T07:57:38.367Z,91.20
2024-02-22T08:00:09.058Z,91.40
2024-02-22T08:02:36.612Z,91.60
2024-02-22T08:05:07.212Z,91.80
2024-02-22T08:07:35.055Z,91.90
2024-02-22T08:10:02.175Z,92.00
2024-02-22T08:12:30.026Z,92.00
2024-02-22T08:15:05.242Z,91.90
2024-02-22T08:17:33.286Z,91.90
2024-02-22T08:20:07.704Z,91.90
2024-02-22T08:22:34.877Z,91.80
2024-02-22T08:25:03.985Z,91.80
2024-02-22T08:27:30.945Z,91.80
2024-02-22T08:29:57.934Z,91.90
2024-02-22T08:32:24.882Z,91.90
2024-02-22T08:34:54.383Z,92.00
2024-02-22T08:37:21.464Z,92.00
2024-02-22T08:39:48.380Z,91.90
2024-02-22T08:42:22.581Z,91.80
2024-02-22T08:44:55.122Z,91.90
2024-02-22T08:47:22.113Z,91.60
2024-02-22T08:49:49.098Z,91.60
2024-02-22T08:52:20.870Z,91.60
2024-02-22T08:54:47.960Z,91.60
2024-02-22T08:57:17.121Z,91.70
2024-02-22T08:59:44.861Z,91.90
2024-02-22T09:02:15.314Z,92.00
2024-02-22T09:04:42.304Z,92.20
2024-02-22T09:07:09.551Z,92.30
2024-02-22T09:09:39.020Z,92.40
2024-02-22T09:12:09.182Z,92.50
2024-02-22T09:14:40.837Z,92.50
2024-02-22T09:17:10.535Z,92.50
2024-02-22T09:19:40.034Z,92.50
2024-02-22T09:22:07.068Z,92.40
2024-02-22T09:24:34.069Z,92.50
2024-02-22T09:27:03.149Z,92.70
2024-02-22T09:29:32.136Z,92.90
2024-02-22T09:31:59.173Z,93.20
2024-02-22T09:34:28.999Z,93.30
2024-02-22T09:36:58.549Z,93.40
2024-02-22T09:39:27.686Z,93.40
2024-02-22T09:41:57.995Z,93.20
2024-02-22T09:44:24.983Z,93.10
2024-02-22T09:46:54.942Z,92.90
2024-02-22T09:49:25.753Z,92.90
2024-02-22T09:51:55.535Z,92.90
2024-02-22T09:54:22.840Z,92.90
2024-02-22T09:56:52.306Z,93.00
2024-02-22T09:59:51.635Z,93.10
2024-02-22T10:02:21.396Z,93.20
2024-02-22T10:04:53.247Z,93.30
2024-02-22T10:07:23.806Z,93.40
2024-02-22T10:09:53.575Z,93.40
2024-02-22T10:12:32.452Z,93.30
2024-02-22T10:15:01.070Z,93.30
2024-02-22T10:17:31.340Z,93.10
2024-02-22T10:20:07.946Z,93.20
2024-02-22T10:22:35.745Z,93.10
2024-02-22T10:25:09.085Z,92.60
2024-02-22T10:27:42.575Z,92.60
2024-02-22T10:30:10.998Z,92.40
2024-02-22T10:32:43.158Z,92.50
2024-02-22T10:35:11.660Z,92.50
2024-02-22T10:37:41.768Z,92.40
2024-02-22T10:40:13.129Z,92.70
2024-02-22T10:42:42.649Z,92.80
2024-02-22T10:45:12.224Z,93.00
2024-02-22T10:47:39.279Z,92.80
2024-02-22T10:50:09.943Z,92.90
2024-02-22T10:52:45.823Z,93.20
2024-02-22T10:55:17.598Z,93.10
2024-02-22T10:57:49.093Z,93.20
2024-02-22T11:00:16.531Z,93.20
2024-02-22T11:02:45.046Z,93.20
2024-02-22T11:05:12.978Z,93.10
2024-02-22T11:07:44.720Z,92.40
2024-02-22T11:10:12.243Z,92.20
2024-02-22T11:12:44.112Z,91.90
2024-02-22T11:15:14.026Z,91.80
2024-02-22T11:17:54.838Z,91.20
2024-02-22T11:20:42.141Z,91.40
2024-02-22T11:23:15.569Z,91.30
2024-02-22T11:25:42.962Z,91.10
2024-02-22T11:28:10.358Z,91.20
2024-02-22T11:30:37.295Z,91.30
2024-02-22T11:33:07.112Z,91.50
2024-02-22T11:35:34.778Z,91.20
2024-02-22T11:38:03.746Z,91.20
2024-02-22T11:40:36.873Z,91.20
2024-02-22T11:43:06.792Z,91.50
2024-02-22T11:45:35.771Z,91.90
2024-02-22T11:48:04.440Z,91.30
2024-02-22T11:50:32.767Z,90.70
2024-02-22T11:53:01.113Z,90.50
2024-02-22T11:55:28.872Z,90.60
2024-02-22T11:57:56.343Z,90.60
2024-02-22T12:00:25.880Z,91.10
2024-02-22T12:02:57.140Z,91.30
2024-02-22T12:05:25.832Z,91.10
2024-02-22T12:07:53.036Z,90.60
2024-02-22T12:10:23.028Z,90.40
2024-02-22T12:12:52.156Z,90.60
2024-02-22T12:15:24.351Z,91.00
2024-02-22T12:17:56.478Z,90.80
2024-02-22T12:20:24.216Z,85.10
2024-02-22T12:22:56.119Z,85.30
2024-02-22T12:25:25.801Z,86.30
2024-02-22T12:27:57.434Z,88.00
2024-02-22T12:30:24.892Z,88.40
2024-02-22T12:32:52.487Z,89.10
2024-02-22T12:35:20.294Z,89.70
2024-02-22T12:37:49.663Z,88.90
2024-02-22T12:40:21.631Z,90.00
2024-02-22T12:42:56.863Z,90.90
2024-02-22T12:45:24.193Z,90.50
2024-02-22T12:47:56.025Z,90.20
2024-02-22T12:50:23.150Z,89.50
2024-02-22T12:52:50.214Z,90.70
2024-02-22T12:55:17.118Z,90.50
2024-02-22T12:57:44.089Z,90.60
2024-02-22T13:00:16.083Z,91.20
2024-02-22T13:02:45.295Z,90.70
2024-02-22T13:05:14.535Z,90.60
2024-02-22T13:07:41.680Z,91.20
2024-02-22T13:10:09.585Z,91.40
2024-02-22T13:12:38.968Z,91.10
2024-02-22T13:15:09.299Z,91.10
2024-02-22T13:17:38.924Z,91.20
2024-02-22T13:20:09.422Z,91.00
2024-02-22T13:22:38.916Z,90.80
2024-02-22T13:25:06.652Z,90.50
2024-02-22T13:27:38.785Z,91.00
2024-02-22T13:30:11.202Z,91.00
2024-02-22T13:32:40.730Z,90.90
2024-02-22T13:35:10.428Z,90.70
2024-02-22T13:37:40.517Z,91.20
2024-02-22T13:40:12.752Z,91.20
2024-02-22T13:42:45.057Z,91.20
2024-02-22T13:45:14.118Z,91.00
2024-02-22T13:47:41.310Z,91.10
2024-02-22T13:50:13.069Z,91.40
2024-02-22T13:52:42.003Z,91.30
2024-02-22T13:55:11.879Z,91.10
2024-02-22T13:57:41.245Z,91.40
2024-02-22T14:00:08.716Z,91.10
2024-02-22T14:02:40.854Z,91.00
2024-02-22T14:05:11.546Z,90.80
2024-02-22T14:07:38.760Z,90.50
2024-02-22T14:10:10.244Z,90.50
2024-02-22T14:12:39.671Z,90.70
2024-02-22T14:15:07.035Z,90.60
2024-02-22T14:17:43.997Z,90.90
2024-02-22T14:20:14.470Z,91.20
2024-02-22T14:22:44.008Z,91.10
2024-02-22T14:25:13.181Z,91.40
2024-02-22T14:27:44.419Z,91.10
2024-02-22T14:30:11.964Z,90.40
2024-02-22T14:32:38.947Z,90.30
2024-02-22T14:35:06.906Z,90.20
2024-02-22T14:37:33.938Z,90.00
2024-02-22T14:40:01.018Z,90.10
2024-02-22T14:42:30.172Z,89.50
2024-02-22T14:44:58.581Z,89.50
2024-02-22T14:47:25.957Z,89.90
2024-02-22T14:49:53.037Z,89.90
2024-02-22T14:52:19.992Z,90.10
2024-02-22T14:54:46.934Z,89.20
2024-02-22T14:57:14.157Z,89.50
2024-02-22T14:59:41.094Z,89.10
2024-02-22T15:02:08.188Z,89.40
2024-02-22T15:04:38.006Z,89.00
2024-02-22T15:07:06.556Z,89.20
2024-02-22T15:09:34.293Z,89.30
2024-02-22T15:12:02.927Z,89.60
2024-02-22T15:14:32.791Z,90.10
2024-02-22T15:17:05.285Z,89.80
2024-02-22T15:19:35.037Z,90.70
2024-02-22T15:22:02.512Z,90.50
2024-02-22T15:24:29.487Z,90.50
2024-02-22T15:27:03.121Z,90.60
2024-02-22T15:29:30.326Z,89.50
2024-02-22T15:31:57.411Z,89.90
2024-02-22T15:34:27.047Z,90.40
2024-02-22T15:36:56.914Z,90.10
2024-02-22T15:39:23.940Z,90.10
2024-02-22T15:41:50.904Z,90.10
2024-02-22T15:44:18.246Z,90.10
2024-02-22T15:46:45.712Z,89.90
2024-02-22T15:49:16.827Z,90.00
2024-02-22T15:51:44.276Z,90.40
2024-02-22T15:54:13.601Z,90.80
2024-02-22T15:56:40.920Z,90.70
2024-02-22T15:59:07.929Z,91.00
2024-02-22T16:01:37.171Z,91.00
2024-02-22T16:04:04.780Z,91.30
2024-02-22T16:06:38.403Z,91.40
2024-02-22T16:09:09.065Z,91.10
2024-02-22T16:11:38.848Z,91.20
2024-02-22T16:14:06.047Z,91.20
2024-02-22T16:16:35.548Z,91.00
2024-02-22T16:19:02.564Z,91.00
2024-02-22T16:21:29.566Z,90.70
2024-02-22T16:23:58.856Z,90.40
2024-02-22T16:26:28.355Z,89.60
2024-02-22T16:28:57.566Z,88.80
2024-02-22T16:31:24.536Z,88.50
2024-02-22T16:33:51.625Z,88.40
2024-02-22T16:36:21.121Z,88.70
2024-02-22T16:38:54.829Z,89.10
2024-02-22T16:41:30.710Z,88.50
2024-02-22T16:44:02.885Z,88.70
2024-02-22T16:46:29.856Z,88.70
2024-02-22T16:48:59.021Z,88.70
2024-02-22T16:51:28.168Z,88.50
2024-02-22T16:53:55.142Z,88.70
2024-02-22T16:56:25.237Z,88.90
2024-02-22T16:58:54.102Z,88.80
2024-02-22T17:01:21.069Z,89.30
2024-02-22T17:03:48.464Z,89.70
2024-02-22T17:06:17.692Z,89.30
2024-02-22T17:08:47.611Z,89.80
2024-02-22T17:11:16.666Z,89.90
2024-02-22T17:13:46.894Z,90.00
2024-02-22T17:16:15.997Z,90.20
2024-02-22T17:18:42.982Z,89.70
2024-02-22T17:21:15.035Z,89.80
2024-02-22T17:23:42.757Z,89.70
2024-02-22T17:26:09.693Z,89.50
2024-02-22T17:28:38.945Z,88.70
2024-02-22T17:31:10.307Z,89.10
2024-02-22T17:33:37.513Z,89.30
2024-02-22T17:36:05.243Z,89.20
2024-02-22T17:38:35.410Z,89.50
2024-02-22T17:41:02.482Z,90.00
2024-02-22T17:43:29.716Z,90.30
2024-02-22T17:45:56.720Z,90.60
2024-02-22T17:48:25.375Z,90.70
2024-02-22T17:50:52.455Z,90.80
2024-02-22T17:53:19.724Z,90.70
2024-02-22T17:55:46.797Z,90.70
2024-02-22T17:58:16.349Z,90.40
2024-02-22T18:00:46.786Z,90.70
2024-02-22T18:03:16.232Z,90.50
2024-02-22T18:05:43.267Z,90.40
2024-02-22T18:08:12.529Z,90.50
2024-02-22T18:10:39.731Z,90.50
2024-02-22T18:13:06.861Z,90.30
2024-02-22T18:15:33.825Z,90.40
2024-02-22T18:18:01.446Z,90.20
2024-02-22T18:20:35.437Z,90.10
2024-02-22T18:23:05.709Z,90.40
2024-02-22T18:25:33.080Z,89.90
2024-02-22T18:28:00.147Z,89.80
2024-02-22T18:30:27.112Z,89.80
2024-02-22T18:32:56.235Z,90.00
2024-02-22T18:35:26.064Z,90.30
2024-02-22T18:37:55.484Z,90.20
2024-02-22T18:40:22.452Z,90.30
2024-02-22T18:42:49.944Z,90.40
2024-02-22T18:45:17.176Z,90.30
2024-02-22T18:47:48.734Z,90.50
2024-02-22T18:50:16.050Z,90.30
2024-02-22T18:52:43.028Z,90.40
2024-02-22T18:55:12.184Z,90.30
2024-02-22T18:57:43.386Z,90.60
2024-02-22T19:00:13.632Z,90.40
2024-02-22T19:02:43.068Z,90.40
2024-02-22T19:05:11.000Z,90.40
2024-02-22T19:07:39.893Z,90.50
2024-02-22T19:10:09.570Z,90.50
2024-02-22T19:12:38.064Z,90.50
2024-02-22T19:15:06.159Z,90.30
2024-02-22T19:17:33.149Z,90.40
2024-02-22T19:20:00.482Z,90.30
2024-02-22T19:22:31.473Z,90.20
2024-02-22T19:25:03.838Z,90.00
2024-02-22T19:27:35.693Z,89.70
2024-02-22T19:30:05.523Z,89.50
2024-02-22T19:32:37.145Z,89.40
2024-02-22T19:35:04.527Z,89.00
2024-02-22T19:37:31.515Z,88.70
2024-02-22T19:40:02.250Z,88.40
2024-02-22T19:42:29.163Z,88.50
2024-02-22T19:44:58.661Z,88.70
2024-02-22T19:47:26.132Z,89.00
2024-02-22T19:49:53.634Z,89.10
2024-02-22T19:52:20.598Z,89.50
2024-02-22T19:54:47.507Z,89.50
2024-02-22T19:57:20.377Z,89.50
2024-02-22T19:59:49.993Z,89.80
2024-02-22T20:02:19.570Z,89.90
2024-02-22T20:04:46.740Z,90.00
2024-02-22T20:07:13.830Z,89.90
2024-02-22T20:09:45.218Z,89.80
2024-02-22T20:12:13.540Z,89.50
2024-02-22T20:14:43.033Z,89.40
2024-02-22T20:17:12.481Z,89.00
2024-02-22T20:19:41.626Z,88.70
2024-02-22T20:22:08.554Z,88.70
2024-02-22T20:24:40.192Z,88.60
2024-02-22T20:27:07.220Z,88.30
2024-02-22T20:29:34.180Z,88.30
2024-02-22T20:32:05.948Z,88.20
2024-02-22T20:34:33.047Z,88.30
2024-02-22T20:37:00.098Z,88.30
2024-02-22T20:39:27.059Z,88.40
2024-02-22T20:41:54.451Z,88.40
2024-02-22T20:44:21.408Z,88.30
2024-02-22T20:46:48.861Z,88.20
2024-02-22T20:49:15.954Z,88.40
2024-02-22T20:51:46.282Z,88.30
2024-02-22T20:54:13.249Z,88.40
2024-02-22T20:56:40.154Z,88.60
2024-02-22T20:59:13.513Z,88.30
2024-02-22T21:01:40.513Z,88.20
2024-02-22T21:04:07.439Z,88.30
2024-02-22T21:06:36.924Z,88.20
2024-02-22T21:09:09.570Z,88.00
2024-02-22T21:11:39.113Z,88.10
2024-02-22T21:14:11.718Z,88.20
2024-02-22T21:16:44.071Z,88.40
2024-02-22T21:19:11.089Z,88.50
2024-02-22T21:21:38.752Z,88.50
2024-02-22T21:24:06.293Z,88.60
2024-02-22T21:26:35.325Z,88.70
2024-02-22T21:29:05.330Z,88.60
2024-02-22T21:31:32.285Z,88.50
2024-02-22T21:34:00.551Z,88.40
2024-02-22T21:36:27.494Z,88.20
2024-02-22T21:39:00.698Z,87.80
2024-02-22T21:41:27.746Z,87.30
2024-02-22T21:43:54.693Z,87.50
2024-02-22T21:46:21.704Z,87.60
2024-02-22T21:48:51.118Z,87.50
2024-02-22T21:51:18.099Z,87.50
2024-02-22T21:53:50.350Z,87.40
2024-02-22T21:56:17.739Z,87.50
2024-02-22T21:58:44.809Z,87.60
2024-02-22T22:01:16.292Z,87.50
2024-02-22T22:03:43.267Z,87.40
2024-02-22T22:06:12.371Z,87.40
2024-02-22T22:08:39.466Z,87.40
2024-02-22T22:11:08.610Z,87.30
2024-02-22T22:13:43.867Z,87.20
2024-02-22T22:16:16.832Z,87.40
2024-02-22T22:18:44.622Z,87.40
2024-02-22T22:21:21.168Z,87.40
2024-02-22T22:23:55.631Z,87.50
2024-02-22T22:26:27.436Z,87.20
2024-02-22T22:28:54.526Z,87.20
2024-02-22T22:31:21.473Z,87.50
2024-02-22T22:33:48.644Z,87.60
2024-02-22T22:36:15.690Z,87.50
2024-02-22T22:38:42.652Z,87.70
2024-02-22T22:41:14.203Z,87.90
2024-02-22T22:43:44.351Z,87.90
2024-02-22T22:46:12.609Z,87.90
2024-02-22T22:48:39.544Z,87.80
2024-02-22T22:51:06.494Z,87.50
2024-02-22T22:53:33.440Z,87.50
2024-02-22T22:56:02.547Z,87.60
2024-02-22T22:58:29.780Z,87.80
2024-02-22T23:00:56.696Z,87.90
2024-02-22T23:03:23.629Z,88.00
2024-02-22T23:05:53.159Z,87.80
2024-02-22T23:08:20.156Z,87.70
2024-02-22T23:10:49.447Z,87.80
2024-02-22T23:13:16.406Z,87.70
2024-02-22T23:15:43.617Z,87.70
2024-02-22T23:18:10.667Z,87.80
2024-02-22T23:20:37.621Z,87.70
2024-02-22T23:23:04.741Z,87.70
2024-02-22T23:25:34.056Z,87.70
2024-02-22T23:28:05.554Z,87.70
2024-02-22T23:30:34.665Z,87.50
2024-02-22T23:33:04.052Z,87.50
2024-02-22T23:35:33.941Z,87.10
2024-02-22T23:38:01.008Z,87.00
2024-02-22T23:40:31.855Z,86.90
2024-02-22T23:42:59.114Z,87.00
2024-02-22T23:45:26.223Z,87.20
2024-02-22T23:47:57.455Z,87.20
2024-02-22T23:50:24.463Z,87.20
2024-02-22T23:52:56.897Z,87.20
2024-02-22T23:55:23.848Z,87.20
2024-02-22T23:57:55.164Z,87.00
